createdAt,value
2022-08-02T00:01:54.715Z,1.35
2022-08-02T00:04:45.459Z,1.38
2022-08-02T00:07:40.883Z,1.30
2022-08-02T00:10:31.159Z,1.38
2022-08-02T00:13:21.339Z,1.50
2022-08-02T00:16:16.877Z,1.45
2022-08-02T00:19:07.260Z,1.17
2022-08-02T00:21:57.428Z,1.40
2022-08-02T00:24:47.398Z,1.55
2022-08-02T00:27:37.358Z,1.40
2022-08-02T00:30:28.903Z,1.80
2022-08-02T00:34:26.389Z,1.55
2022-08-02T00:36:29.753Z,1.85
2022-08-02T00:39:33.338Z,2.00
2022-08-02T00:42:26.439Z,1.52
2022-08-02T00:45:16.467Z,1.42
2022-08-02T00:48:09.528Z,1.70
2022-08-02T00:50:59.629Z,1.60
2022-08-02T00:53:50.104Z,1.63
2022-08-02T00:56:40.419Z,1.95
2022-08-02T00:59:41.995Z,3.38
2022-08-02T01:02:32.320Z,3.10
2022-08-02T01:05:22.707Z,3.15
2022-08-02T01:08:12.853Z,3.15
2022-08-02T01:11:03.060Z,3.47
2022-08-02T01:13:54.403Z,3.25
2022-08-02T01:17:05.787Z,3.13
2022-08-02T01:20:33.220Z,2.95
2022-08-02T01:23:35.768Z,2.60
2022-08-02T01:26:37.337Z,2.53
2022-08-02T01:29:34.663Z,2.65
2022-08-02T01:32:31.160Z,2.20
2022-08-02T01:35:27.177Z,2.33
2022-08-02T01:38:23.833Z,2.13
2022-08-02T01:41:18.608Z,2.00
2022-08-02T01:44:10.743Z,2.10
2022-08-02T01:47:04.533Z,2.20
2022-08-02T01:49:58.653Z,2.45
2022-08-02T01:52:53.383Z,2.00
2022-08-02T01:55:56.867Z,2.10
2022-08-02T02:01:40.694Z,2.20
2022-08-02T02:04:32.657Z,2.00
2022-08-02T02:07:22.899Z,2.35
2022-08-02T02:10:16.675Z,3.47
2022-08-02T02:13:12.505Z,2.10
2022-08-02T02:16:04.908Z,1.80
2022-08-02T02:18:55.587Z,2.20
2022-08-02T02:21:46.083Z,1.60
2022-08-02T02:24:36.761Z,2.17
2022-08-02T02:27:27.941Z,2.28
2022-08-02T02:30:18.613Z,2.22
2022-08-02T02:33:11.568Z,2.08
2022-08-02T02:36:03.192Z,2.10
2022-08-02T02:38:56.479Z,1.85
2022-08-02T02:41:49.032Z,2.20
2022-08-02T02:44:40.529Z,1.90
2022-08-02T02:47:41.307Z,2.20
2022-08-02T02:50:33.131Z,1.75
2022-08-02T02:53:24.122Z,2.15
2022-08-02T02:56:16.238Z,2.03
2022-08-02T02:59:09.002Z,2.28
2022-08-02T03:02:00.082Z,2.47
2022-08-02T03:04:57.425Z,2.35
2022-08-02T03:07:48.523Z,2.90
2022-08-02T03:10:39.306Z,2.47
2022-08-02T03:13:33.256Z,2.55
2022-08-02T03:16:31.192Z,2.50
2022-08-02T03:19:23.200Z,2.40
2022-08-02T03:22:13.747Z,2.60
2022-08-02T03:25:04.085Z,2.40
2022-08-02T03:27:54.674Z,2.47
2022-08-02T03:30:44.648Z,2.55
2022-08-02T03:33:35.872Z,2.40
2022-08-02T03:36:30.560Z,3.03
2022-08-02T03:39:22.399Z,2.60
2022-08-02T03:42:15.619Z,2.60
2022-08-02T03:45:09.333Z,2.63
2022-08-02T03:48:00.567Z,2.35
2022-08-02T03:50:51.933Z,2.58
2022-08-02T03:53:44.355Z,2.17
2022-08-02T03:56:34.742Z,2.40
2022-08-02T03:59:24.895Z,2.65
2022-08-02T04:02:15.357Z,2.65
2022-08-02T04:05:05.795Z,2.00
2022-08-02T04:08:33.472Z,2.63
2022-08-02T04:11:37.134Z,2.40
2022-08-02T04:14:27.528Z,2.25
2022-08-02T04:17:19.812Z,2.47
2022-08-02T04:20:19.279Z,2.90
2022-08-02T04:23:14.458Z,2.80
2022-08-02T04:26:05.561Z,3.20
2022-08-02T04:29:00.407Z,2.60
2022-08-02T04:31:51.751Z,2.97
2022-08-02T04:34:47.449Z,2.72
2022-08-02T04:38:09.055Z,2.60
2022-08-02T04:40:55.994Z,2.30
2022-08-02T04:43:46.304Z,2.67
2022-08-02T04:46:37.082Z,3.00
2022-08-02T04:49:27.527Z,2.60
2022-08-02T04:52:17.789Z,3.42
2022-08-02T04:55:09.270Z,2.60
2022-08-02T04:58:03.499Z,2.90
2022-08-02T05:00:54.263Z,3.30
2022-08-02T05:03:47.457Z,3.05
2022-08-02T05:06:37.784Z,3.00
2022-08-02T05:09:28.180Z,2.50
2022-08-02T05:12:19.608Z,2.50
2022-08-02T05:15:13.069Z,3.20
2022-08-02T05:18:03.503Z,2.83
2022-08-02T05:20:58.040Z,3.38
2022-08-02T05:23:48.721Z,3.10
2022-08-02T05:26:38.665Z,3.28
2022-08-02T05:29:29.122Z,2.90
2022-08-02T05:32:19.163Z,2.65
2022-08-02T05:35:09.736Z,2.90
2022-08-02T05:38:00.341Z,3.13
2022-08-02T05:40:54.606Z,3.28
2022-08-02T05:43:45.923Z,3.97
2022-08-02T05:46:36.422Z,3.60
2022-08-02T05:49:26.941Z,3.65
2022-08-02T05:52:19.690Z,3.55
2022-08-02T05:55:17.244Z,3.15
2022-08-02T05:58:21.255Z,4.22
2022-08-02T06:01:18.048Z,3.33
2022-08-02T06:04:11.302Z,3.22
2022-08-02T06:07:06.574Z,3.58
2022-08-02T06:09:59.695Z,3.45
2022-08-02T06:13:01.225Z,3.70
2022-08-02T06:15:53.920Z,3.47
2022-08-02T06:18:45.381Z,4.03
2022-08-02T06:22:31.754Z,3.22
2022-08-02T06:24:49.860Z,3.78
2022-08-02T06:27:41.269Z,3.97
2022-08-02T06:30:33.396Z,4.20
2022-08-02T06:33:23.850Z,4.45
2022-08-02T06:36:52.574Z,4.13
2022-08-02T06:39:48.799Z,4.00
2022-08-02T06:43:10.777Z,4.88
2022-08-02T06:46:38.076Z,4.60
2022-08-02T06:49:12.475Z,3.83
2022-08-02T06:52:04.013Z,3.90
2022-08-02T06:54:55.612Z,4.35
2022-08-02T06:57:45.869Z,3.70
2022-08-02T07:00:36.838Z,4.15
2022-08-02T07:03:27.409Z,4.57
2022-08-02T07:06:17.492Z,4.53
2022-08-02T07:09:23.024Z,4.90
2022-08-02T07:12:13.716Z,4.47
2022-08-02T07:15:06.709Z,4.72
2022-08-02T07:17:56.918Z,4.85
2022-08-02T07:20:47.162Z,4.32
2022-08-02T07:23:37.304Z,4.22
2022-08-02T07:26:27.785Z,4.70
2022-08-02T07:29:17.897Z,4.57
2022-08-02T07:32:08.425Z,4.30
2022-08-02T07:35:00.195Z,4.00
2022-08-02T07:38:01.986Z,3.83
2022-08-02T07:40:52.509Z,3.95
2022-08-02T07:43:42.722Z,3.70
2022-08-02T07:46:33.411Z,3.50
2022-08-02T07:49:26.310Z,3.97
2022-08-02T07:52:16.994Z,4.10
2022-08-02T07:55:08.746Z,3.35
2022-08-02T07:57:59.010Z,3.33
2022-08-02T08:00:49.467Z,3.42
2022-08-02T08:03:40.011Z,3.75
2022-08-02T08:06:31.432Z,3.78
2022-08-02T08:09:22.155Z,4.25
2022-08-02T08:12:13.017Z,3.63
2022-08-02T08:15:04.012Z,3.47
2022-08-02T08:17:54.235Z,2.90
2022-08-02T08:20:44.733Z,3.40
2022-08-02T08:23:35.382Z,3.55
2022-08-02T08:26:26.690Z,3.20
2022-08-02T08:29:17.010Z,3.00
2022-08-02T08:32:09.397Z,3.20
2022-08-02T08:35:06.875Z,2.95
2022-08-02T08:37:56.791Z,2.55
2022-08-02T08:40:49.997Z,3.08
2022-08-02T08:43:40.530Z,2.80
2022-08-02T08:46:34.515Z,3.20
2022-08-02T08:49:52.993Z,3.00
2022-08-02T08:52:49.015Z,2.70
2022-08-02T08:55:39.102Z,3.08
2022-08-02T08:58:29.258Z,2.80
2022-08-02T09:01:19.888Z,2.85
2022-08-02T09:04:10.068Z,3.40
2022-08-02T09:06:59.750Z,3.05
2022-08-02T09:09:50.244Z,3.40
2022-08-02T09:12:40.278Z,2.40
2022-08-02T09:15:30.653Z,2.85
2022-08-02T09:18:20.541Z,2.80
2022-08-02T09:21:11.100Z,2.80
2022-08-02T09:24:02.028Z,3.08
2022-08-02T09:26:52.391Z,3.13
2022-08-02T09:30:11.567Z,3.30
2022-08-02T09:32:58.291Z,3.20
2022-08-02T09:36:05.865Z,2.78
2022-08-02T09:39:04.117Z,3.45
2022-08-02T09:42:08.579Z,2.72
2022-08-02T09:45:01.055Z,2.95
2022-08-02T09:47:51.551Z,3.30
2022-08-02T09:50:42.916Z,3.10
2022-08-02T09:53:33.672Z,3.00
2022-08-02T09:56:49.744Z,3.53
2022-08-02T10:00:04.667Z,3.28
2022-08-02T10:03:16.665Z,3.10
2022-08-02T10:06:12.575Z,2.92
2022-08-02T10:09:02.899Z,3.60
2022-08-02T10:11:53.150Z,3.55
2022-08-02T10:14:43.947Z,3.25
2022-08-02T10:17:35.695Z,3.10
2022-08-02T10:20:26.517Z,2.78
2022-08-02T10:23:19.981Z,2.65
2022-08-02T10:26:14.972Z,3.10
2022-08-02T10:29:05.580Z,3.00
2022-08-02T10:31:58.947Z,2.80
2022-08-02T10:34:58.557Z,2.45
2022-08-02T10:38:11.696Z,2.80
2022-08-02T10:41:02.644Z,2.60
2022-08-02T10:43:52.724Z,3.30
2022-08-02T10:46:43.225Z,2.90
2022-08-02T10:49:51.667Z,2.45
2022-08-02T10:52:41.795Z,2.50
2022-08-02T10:55:45.371Z,2.42
2022-08-02T10:58:35.672Z,2.33
2022-08-02T11:01:38.936Z,2.40
2022-08-02T11:04:36.373Z,2.38
2022-08-02T11:07:33.875Z,2.50
2022-08-02T11:10:24.212Z,2.47
2022-08-02T11:13:17.082Z,2.78
2022-08-02T11:16:11.679Z,2.35
2022-08-02T11:19:06.860Z,2.53
2022-08-02T11:22:06.223Z,2.28
2022-08-02T11:24:57.205Z,2.58
2022-08-02T11:27:51.105Z,2.60
2022-08-02T11:30:41.053Z,2.70
2022-08-02T11:33:32.889Z,2.10
2022-08-02T11:36:23.139Z,2.30
2022-08-02T11:39:16.198Z,3.00
2022-08-02T11:42:07.464Z,2.55
2022-08-02T11:44:58.251Z,2.60
2022-08-02T11:47:50.378Z,2.72
2022-08-02T11:50:41.003Z,2.70
2022-08-02T11:53:40.675Z,2.70
2022-08-02T11:56:35.098Z,2.25
2022-08-02T11:59:25.615Z,2.30
2022-08-02T12:02:17.346Z,2.45
2022-08-02T12:05:09.637Z,2.50
2022-08-02T12:08:00.298Z,2.20
2022-08-02T12:10:53.096Z,2.35
2022-08-02T12:13:44.998Z,2.17
2022-08-02T12:19:57.702Z,2.33
2022-08-02T12:22:47.832Z,2.30
2022-08-02T12:25:38.368Z,2.38
2022-08-02T12:28:28.542Z,2.22
2022-08-02T12:31:19.172Z,2.40
2022-08-02T12:34:17.360Z,2.30
2022-08-02T12:37:10.954Z,2.50
2022-08-02T12:40:29.508Z,2.38
2022-08-02T12:43:23.546Z,2.20
2022-08-02T12:46:18.699Z,1.90
2022-08-02T12:49:18.622Z,1.95
2022-08-02T12:52:20.802Z,1.98
2022-08-02T12:55:22.270Z,2.03
2022-08-02T12:58:12.169Z,1.83
2022-08-02T13:01:02.570Z,2.00
2022-08-02T13:04:10.123Z,2.00
2022-08-02T13:07:04.756Z,2.28
2022-08-02T13:10:02.881Z,2.08
2022-08-02T13:12:54.186Z,2.00
2022-08-02T13:15:49.666Z,1.90
2022-08-02T13:18:41.604Z,2.00
2022-08-02T13:21:41.656Z,1.98
2022-08-02T13:24:56.273Z,1.80
2022-08-02T13:27:47.192Z,2.15
2022-08-02T13:30:38.224Z,2.17
2022-08-02T13:33:29.107Z,1.73
2022-08-02T13:36:19.540Z,1.70
2022-08-02T13:39:10.385Z,1.65
2022-08-02T13:42:00.658Z,2.00
2022-08-02T13:44:50.804Z,1.92
2022-08-02T13:48:04.798Z,1.90
2022-08-02T13:50:54.736Z,2.08
2022-08-02T13:53:45.065Z,2.13
2022-08-02T13:56:35.377Z,2.03
2022-08-02T13:59:58.068Z,2.17
2022-08-02T14:02:40.293Z,2.08
2022-08-02T14:05:38.590Z,1.80
2022-08-02T14:08:38.109Z,1.70
2022-08-02T14:11:28.205Z,2.03
2022-08-02T14:14:18.637Z,2.08
2022-08-02T14:17:09.050Z,1.67
2022-08-02T14:19:59.211Z,2.05
2022-08-02T14:22:49.827Z,1.80
2022-08-02T14:25:40.353Z,1.90
2022-08-02T14:28:30.485Z,1.90
2022-08-02T14:31:20.916Z,1.88
2022-08-02T14:34:11.074Z,1.70
2022-08-02T14:37:01.468Z,1.55
2022-08-02T14:40:00.314Z,2.03
2022-08-02T14:42:52.039Z,1.80
2022-08-02T14:45:42.646Z,1.67
2022-08-02T14:48:32.876Z,1.88
2022-08-02T14:51:23.268Z,1.77
2022-08-02T14:54:14.695Z,2.13
2022-08-02T14:57:05.322Z,1.75
2022-08-02T14:59:55.868Z,1.75
2022-08-02T15:02:46.296Z,1.73
2022-08-02T15:05:37.185Z,1.80
2022-08-02T15:08:27.442Z,1.40
2022-08-02T15:11:17.547Z,1.80
2022-08-02T15:14:07.947Z,1.85
2022-08-02T15:16:59.183Z,1.80
2022-08-02T15:19:59.300Z,1.77
2022-08-02T15:22:51.276Z,1.77
2022-08-02T15:25:41.963Z,1.80
2022-08-02T15:28:32.835Z,1.80
2022-08-02T15:31:32.868Z,1.83
2022-08-02T15:34:24.263Z,1.75
2022-08-02T15:37:14.787Z,1.70
2022-08-02T15:40:05.612Z,1.65
2022-08-02T15:42:57.500Z,1.42
2022-08-02T15:45:47.717Z,2.10
2022-08-02T15:48:39.238Z,1.60
2022-08-02T15:51:29.412Z,1.77
2022-08-02T15:54:19.792Z,1.60
2022-08-02T15:57:10.119Z,1.60
2022-08-02T16:00:00.328Z,1.75
2022-08-02T16:02:50.501Z,1.70
2022-08-02T16:05:40.665Z,1.92
2022-08-02T16:08:31.893Z,1.63
2022-08-02T16:11:22.942Z,1.83
2022-08-02T16:14:13.512Z,1.90
2022-08-02T16:17:03.552Z,1.60
2022-08-02T16:19:57.611Z,1.58
2022-08-02T16:22:48.422Z,2.10
2022-08-02T16:25:42.048Z,1.60
2022-08-02T16:31:23.793Z,1.80
2022-08-02T16:34:14.768Z,1.60
2022-08-02T16:37:05.123Z,1.65
2022-08-02T16:39:55.426Z,1.80
2022-08-02T16:42:50.176Z,1.90
2022-08-02T16:45:41.206Z,1.83
2022-08-02T16:48:35.189Z,1.80
2022-08-02T16:51:26.868Z,1.88
2022-08-02T16:54:21.112Z,1.60
2022-08-02T16:57:11.912Z,1.92
2022-08-02T17:00:07.347Z,2.10
2022-08-02T17:03:01.015Z,1.60
2022-08-02T17:06:03.665Z,1.80
2022-08-02T17:08:56.276Z,1.70
2022-08-02T17:11:46.955Z,1.70
2022-08-02T17:14:41.944Z,1.63
2022-08-02T17:17:45.889Z,1.65
2022-08-02T17:20:36.498Z,1.50
2022-08-02T17:23:47.008Z,1.70
2022-08-02T17:26:38.219Z,1.95
2022-08-02T17:29:32.900Z,1.50
2022-08-02T17:32:23.132Z,1.70
2022-08-02T17:35:19.635Z,1.58
2022-08-02T17:38:09.947Z,1.60
2022-08-02T17:41:00.679Z,2.03
2022-08-02T17:43:54.639Z,2.00
2022-08-02T17:46:45.031Z,1.65
2022-08-02T17:49:43.766Z,1.80
2022-08-02T17:52:51.775Z,1.50
2022-08-02T17:55:43.768Z,1.70
2022-08-02T17:58:51.868Z,1.70
2022-08-02T18:01:53.026Z,1.67
2022-08-02T18:04:44.709Z,1.65
2022-08-02T18:07:49.489Z,1.40
2022-08-02T18:10:42.217Z,1.83
2022-08-02T18:13:35.837Z,1.40
2022-08-02T18:16:26.400Z,1.98
2022-08-02T18:19:18.659Z,2.38
2022-08-02T18:22:09.049Z,1.83
2022-08-02T18:25:00.836Z,1.95
2022-08-02T18:28:00.052Z,1.60
2022-08-02T18:33:54.865Z,3.10
2022-08-02T18:36:51.432Z,4.13
2022-08-02T18:39:41.684Z,8.98
2022-08-02T18:42:41.526Z,3.63
2022-08-02T18:45:42.133Z,1.85
2022-08-02T18:48:44.107Z,1.85
2022-08-02T18:51:37.094Z,2.22
2022-08-02T18:54:30.966Z,2.00
2022-08-02T18:58:02.246Z,1.80
2022-08-02T19:00:35.633Z,1.70
2022-08-02T19:03:28.106Z,1.55
2022-08-02T19:06:19.653Z,1.75
2022-08-02T19:09:14.701Z,1.98
2022-08-02T19:12:05.096Z,1.70
2022-08-02T19:14:56.109Z,1.80
2022-08-02T19:17:54.206Z,1.63
2022-08-02T19:20:48.358Z,1.45
2022-08-02T19:23:54.278Z,1.85
2022-08-02T19:26:44.892Z,1.80
2022-08-02T19:29:48.946Z,1.95
2022-08-02T19:32:59.499Z,2.55
2022-08-02T19:36:01.389Z,2.80
2022-08-02T19:38:53.256Z,2.15
2022-08-02T19:41:46.993Z,2.30
2022-08-02T19:44:41.972Z,1.80
2022-08-02T19:47:38.671Z,1.85
2022-08-02T19:50:29.467Z,1.73
2022-08-02T19:53:19.494Z,1.73
2022-08-02T19:56:09.350Z,1.90
2022-08-02T19:59:00.607Z,1.75
2022-08-02T20:01:51.475Z,1.65
2022-08-02T20:04:41.587Z,1.75
2022-08-02T20:07:49.809Z,1.90
2022-08-02T20:10:45.922Z,1.80
2022-08-02T20:13:47.270Z,1.70
2022-08-02T20:16:38.198Z,2.40
2022-08-02T20:19:31.848Z,1.95
2022-08-02T20:22:25.474Z,1.65
2022-08-02T20:25:17.334Z,2.03
2022-08-02T20:28:07.461Z,2.10
2022-08-02T20:30:58.364Z,2.03
2022-08-02T20:33:57.613Z,1.90
2022-08-02T20:36:53.995Z,2.30
2022-08-02T20:39:44.524Z,2.22
2022-08-02T20:42:34.876Z,1.80
2022-08-02T20:45:25.234Z,1.73
2022-08-02T20:48:17.614Z,1.80
2022-08-02T20:51:09.875Z,1.85
2022-08-02T20:54:02.649Z,1.92
2022-08-02T20:56:52.973Z,1.90
2022-08-02T20:59:43.319Z,1.88
2022-08-02T21:02:42.472Z,2.00
2022-08-02T21:05:54.112Z,1.80
2022-08-02T21:08:45.899Z,2.28
2022-08-02T21:11:36.756Z,1.65
2022-08-02T21:14:26.657Z,2.22
2022-08-02T21:17:18.236Z,1.80
2022-08-02T21:20:29.418Z,2.42
2022-08-02T21:23:20.239Z,2.58
2022-08-02T21:26:10.343Z,2.33
2022-08-02T21:29:03.807Z,2.00
2022-08-02T21:31:54.954Z,2.17
2022-08-02T21:34:44.921Z,2.05
2022-08-02T21:37:44.963Z,2.30
2022-08-02T21:40:35.024Z,2.50
2022-08-02T21:43:35.484Z,2.63
2022-08-02T21:46:28.993Z,2.50
2022-08-02T21:49:41.207Z,2.58
2022-08-02T21:52:31.371Z,2.80
2022-08-02T21:56:00.004Z,2.83
2022-08-02T21:58:35.126Z,2.47
2022-08-02T22:01:25.480Z,2.50
2022-08-02T22:04:20.283Z,2.40
2022-08-02T22:07:10.791Z,2.47
2022-08-02T22:10:00.862Z,2.97
2022-08-02T22:12:51.025Z,2.50
2022-08-02T22:15:41.242Z,2.65
2022-08-02T22:18:31.980Z,2.75
2022-08-02T22:21:27.673Z,2.80
2022-08-02T22:24:34.182Z,2.90
2022-08-02T22:28:13.305Z,3.22
2022-08-02T22:30:35.548Z,2.65
2022-08-02T22:33:59.856Z,3.70
2022-08-02T22:36:51.652Z,2.45
2022-08-02T22:40:06.804Z,2.72
2022-08-02T22:42:51.681Z,3.05
2022-08-02T22:45:43.563Z,2.97
2022-08-02T22:48:36.406Z,3.20
2022-08-02T22:51:30.235Z,2.78
2022-08-02T22:54:20.194Z,3.10
2022-08-02T22:57:14.078Z,3.00
2022-08-02T23:00:08.921Z,3.00
2022-08-02T23:02:59.516Z,3.20
2022-08-02T23:05:50.793Z,3.15
2022-08-02T23:08:40.999Z,3.00
2022-08-02T23:11:31.070Z,3.50
2022-08-02T23:14:20.816Z,2.85
2022-08-02T23:17:29.837Z,3.25
2022-08-02T23:20:20.072Z,3.03
2022-08-02T23:23:11.773Z,2.90
2022-08-02T23:26:02.015Z,3.00
2022-08-02T23:28:52.532Z,2.95
2022-08-02T23:31:42.852Z,2.90
2022-08-02T23:34:35.860Z,2.70
2022-08-02T23:37:25.902Z,3.10
2022-08-02T23:40:16.185Z,3.53
2022-08-02T23:43:26.024Z,3.10
2022-08-02T23:46:16.501Z,3.22
2022-08-02T23:49:06.524Z,3.40
2022-08-02T23:52:01.066Z,3.05
2022-08-02T23:54:52.313Z,2.97
2022-08-02T23:57:42.516Z,3.90
